sensor_id;sensor_type;location;lat;lon;timestamp;P1;durP1;ratioP1;P2;durP2;ratioP2
41480;SDS011;27217;51.220;5.308;2023-05-24T00:01:52;12.60;;;2.35;;
41480;SDS011;27217;51.220;5.308;2023-05-24T00:04:20;10.15;;;2.70;;
41480;SDS011;27217;51.220;5.308;2023-05-24T00:06:49;15.43;;;2.58;;
41480;SDS011;27217;51.220;5.308;2023-05-24T00:09:18;17.58;;;2.90;;
41480;SDS011;27217;51.220;5.308;2023-05-24T00:11:44;23.55;;;3.17;;
41480;SDS011;27217;51.220;5.308;2023-05-24T00:14:10;12.07;;;2.10;;
41480;SDS011;27217;51.220;5.308;2023-05-24T00:16:36;18.25;;;2.67;;
41480;SDS011;27217;51.220;5.308;2023-05-24T00:19:02;14.48;;;2.55;;
41480;SDS011;27217;51.220;5.308;2023-05-24T00:21:28;14.35;;;2.47;;
41480;SDS011;27217;51.220;5.308;2023-05-24T00:23:54;14.57;;;3.13;;
41480;SDS011;27217;51.220;5.308;2023-05-24T00:26:20;10.88;;;2.85;;
41480;SDS011;27217;51.220;5.308;2023-05-24T00:28:46;15.07;;;2.95;;
41480;SDS011;27217;51.220;5.308;2023-05-24T00:31:12;13.88;;;2.70;;
41480;SDS011;27217;51.220;5.308;2023-05-24T00:33:39;12.55;;;3.53;;
41480;SDS011;27217;51.220;5.308;2023-05-24T00:36:05;10.73;;;2.90;;
41480;SDS011;27217;51.220;5.308;2023-05-24T00:38:31;19.33;;;2.92;;
41480;SDS011;27217;51.220;5.308;2023-05-24T00:40:57;8.80;;;2.40;;
41480;SDS011;27217;51.220;5.308;2023-05-24T00:43:25;10.82;;;2.72;;
41480;SDS011;27217;51.220;5.308;2023-05-24T00:48:38;13.98;;;3.20;;
41480;SDS011;27217;51.220;5.308;2023-05-24T00:51:04;18.83;;;3.17;;
41480;SDS011;27217;51.220;5.308;2023-05-24T00:53:30;9.93;;;3.10;;
41480;SDS011;27217;51.220;5.308;2023-05-24T00:55:57;14.60;;;3.92;;
41480;SDS011;27217;51.220;5.308;2023-05-24T00:58:24;16.55;;;3.50;;
41480;SDS011;27217;51.220;5.308;2023-05-24T01:00:54;26.08;;;4.13;;
41480;SDS011;27217;51.220;5.308;2023-05-24T01:03:27;14.77;;;2.63;;
41480;SDS011;27217;51.220;5.308;2023-05-24T01:05:57;16.25;;;3.20;;
41480;SDS011;27217;51.220;5.308;2023-05-24T01:14:03;12.48;;;3.60;;
41480;SDS011;27217;51.220;5.308;2023-05-24T01:21:55;18.10;;;3.55;;
41480;SDS011;27217;51.220;5.308;2023-05-24T01:24:36;10.98;;;3.30;;
41480;SDS011;27217;51.220;5.308;2023-05-24T01:27:26;13.38;;;2.78;;
41480;SDS011;27217;51.220;5.308;2023-05-24T01:29:56;15.18;;;3.53;;
41480;SDS011;27217;51.220;5.308;2023-05-24T01:32:23;6.57;;;2.80;;
41480;SDS011;27217;51.220;5.308;2023-05-24T01:34:49;15.60;;;2.40;;
41480;SDS011;27217;51.220;5.308;2023-05-24T01:37:15;11.40;;;3.22;;
41480;SDS011;27217;51.220;5.308;2023-05-24T01:39:41;19.55;;;3.65;;
41480;SDS011;27217;51.220;5.308;2023-05-24T01:42:15;11.63;;;2.92;;
41480;SDS011;27217;51.220;5.308;2023-05-24T01:53:11;17.00;;;2.88;;
41480;SDS011;27217;51.220;5.308;2023-05-24T01:55:40;14.63;;;3.42;;
41480;SDS011;27217;51.220;5.308;2023-05-24T01:58:07;9.60;;;2.72;;
41480;SDS011;27217;51.220;5.308;2023-05-24T02:00:35;15.07;;;3.05;;
41480;SDS011;27217;51.220;5.308;2023-05-24T02:03:04;11.43;;;3.75;;
41480;SDS011;27217;51.220;5.308;2023-05-24T02:05:31;16.23;;;3.50;;
41480;SDS011;27217;51.220;5.308;2023-05-24T02:07:57;11.77;;;2.92;;
41480;SDS011;27217;51.220;5.308;2023-05-24T02:10:23;14.23;;;3.50;;
41480;SDS011;27217;51.220;5.308;2023-05-24T02:12:49;39.67;;;5.60;;
41480;SDS011;27217;51.220;5.308;2023-05-24T02:15:15;12.20;;;3.10;;
41480;SDS011;27217;51.220;5.308;2023-05-24T02:17:41;13.45;;;3.00;;
41480;SDS011;27217;51.220;5.308;2023-05-24T02:20:07;12.65;;;4.40;;
41480;SDS011;27217;51.220;5.308;2023-05-24T02:22:34;16.98;;;3.53;;
41480;SDS011;27217;51.220;5.308;2023-05-24T02:25:00;17.30;;;3.88;;
41480;SDS011;27217;51.220;5.308;2023-05-24T02:27:25;15.65;;;3.20;;
41480;SDS011;27217;51.220;5.308;2023-05-24T02:29:51;14.93;;;3.75;;
41480;SDS011;27217;51.220;5.308;2023-05-24T02:32:17;8.50;;;2.88;;
41480;SDS011;27217;51.220;5.308;2023-05-24T02:34:43;19.40;;;4.88;;
41480;SDS011;27217;51.220;5.308;2023-05-24T02:37:09;13.90;;;2.80;;
41480;SDS011;27217;51.220;5.308;2023-05-24T02:39:38;26.02;;;3.83;;
41480;SDS011;27217;51.220;5.308;2023-05-24T02:42:05;14.38;;;3.10;;
41480;SDS011;27217;51.220;5.308;2023-05-24T02:44:32;11.00;;;3.33;;
41480;SDS011;27217;51.220;5.308;2023-05-24T02:46:59;17.20;;;4.72;;
41480;SDS011;27217;51.220;5.308;2023-05-24T02:49:25;11.73;;;3.22;;
41480;SDS011;27217;51.220;5.308;2023-05-24T02:51:51;16.73;;;4.57;;
41480;SDS011;27217;51.220;5.308;2023-05-24T02:54:17;24.33;;;3.95;;
41480;SDS011;27217;51.220;5.308;2023-05-24T02:56:42;12.00;;;3.47;;
41480;SDS011;27217;51.220;5.308;2023-05-24T02:59:09;18.63;;;3.30;;
41480;SDS011;27217;51.220;5.308;2023-05-24T03:01:35;17.98;;;3.42;;
41480;SDS011;27217;51.220;5.308;2023-05-24T03:04:01;10.98;;;3.67;;
41480;SDS011;27217;51.220;5.308;2023-05-24T03:06:27;12.95;;;2.97;;
41480;SDS011;27217;51.220;5.308;2023-05-24T03:08:53;12.25;;;3.22;;
41480;SDS011;27217;51.220;5.308;2023-05-24T03:11:19;15.52;;;3.58;;
41480;SDS011;27217;51.220;5.308;2023-05-24T03:13:46;15.93;;;3.42;;
41480;SDS011;27217;51.220;5.308;2023-05-24T03:16:12;12.77;;;3.20;;
41480;SDS011;27217;51.220;5.308;2023-05-24T03:18:38;14.10;;;4.03;;
41480;SDS011;27217;51.220;5.308;2023-05-24T03:21:05;19.10;;;4.05;;
41480;SDS011;27217;51.220;5.308;2023-05-24T03:23:31;14.07;;;4.00;;
41480;SDS011;27217;51.220;5.308;2023-05-24T03:25:57;21.88;;;4.18;;
41480;SDS011;27217;51.220;5.308;2023-05-24T03:28:23;14.63;;;3.55;;
41480;SDS011;27217;51.220;5.308;2023-05-24T03:30:49;15.73;;;3.63;;
41480;SDS011;27217;51.220;5.308;2023-05-24T03:33:15;9.57;;;4.00;;
41480;SDS011;27217;51.220;5.308;2023-05-24T03:35:40;20.02;;;4.45;;
41480;SDS011;27217;51.220;5.308;2023-05-24T03:38:06;10.77;;;3.42;;
41480;SDS011;27217;51.220;5.308;2023-05-24T03:40:32;19.30;;;3.55;;
41480;SDS011;27217;51.220;5.308;2023-05-24T03:42:58;14.90;;;3.50;;
41480;SDS011;27217;51.220;5.308;2023-05-24T03:45:24;16.88;;;5.68;;
41480;SDS011;27217;51.220;5.308;2023-05-24T03:47:50;12.07;;;4.82;;
41480;SDS011;27217;51.220;5.308;2023-05-24T03:50:15;17.00;;;4.13;;
41480;SDS011;27217;51.220;5.308;2023-05-24T03:52:41;22.77;;;4.50;;
41480;SDS011;27217;51.220;5.308;2023-05-24T03:55:07;15.23;;;4.05;;
41480;SDS011;27217;51.220;5.308;2023-05-24T03:57:34;16.25;;;4.15;;
41480;SDS011;27217;51.220;5.308;2023-05-24T03:59:59;20.63;;;3.63;;
41480;SDS011;27217;51.220;5.308;2023-05-24T04:02:26;12.80;;;4.03;;
41480;SDS011;27217;51.220;5.308;2023-05-24T04:04:51;16.80;;;5.22;;
41480;SDS011;27217;51.220;5.308;2023-05-24T04:07:17;14.10;;;4.22;;
41480;SDS011;27217;51.220;5.308;2023-05-24T04:09:43;17.80;;;4.47;;
41480;SDS011;27217;51.220;5.308;2023-05-24T04:12:09;14.95;;;4.32;;
41480;SDS011;27217;51.220;5.308;2023-05-24T04:14:35;39.20;;;6.15;;
41480;SDS011;27217;51.220;5.308;2023-05-24T04:17:01;17.15;;;4.57;;
41480;SDS011;27217;51.220;5.308;2023-05-24T04:19:29;11.88;;;4.25;;
41480;SDS011;27217;51.220;5.308;2023-05-24T04:21:58;13.05;;;4.05;;
41480;SDS011;27217;51.220;5.308;2023-05-24T04:24:24;23.60;;;5.05;;
41480;SDS011;27217;51.220;5.308;2023-05-24T04:26:50;25.60;;;6.93;;
41480;SDS011;27217;51.220;5.308;2023-05-24T04:29:16;23.27;;;5.22;;
41480;SDS011;27217;51.220;5.308;2023-05-24T04:31:42;22.58;;;5.22;;
41480;SDS011;27217;51.220;5.308;2023-05-24T04:34:09;21.45;;;4.70;;
41480;SDS011;27217;51.220;5.308;2023-05-24T04:36:37;23.65;;;6.68;;
41480;SDS011;27217;51.220;5.308;2023-05-24T04:39:03;24.90;;;5.38;;
41480;SDS011;27217;51.220;5.308;2023-05-24T04:41:29;19.45;;;5.13;;
41480;SDS011;27217;51.220;5.308;2023-05-24T04:43:56;27.00;;;5.40;;
41480;SDS011;27217;51.220;5.308;2023-05-24T04:46:26;27.98;;;5.65;;
41480;SDS011;27217;51.220;5.308;2023-05-24T04:48:52;24.00;;;6.63;;
41480;SDS011;27217;51.220;5.308;2023-05-24T04:51:18;22.88;;;5.47;;
41480;SDS011;27217;51.220;5.308;2023-05-24T04:53:46;16.13;;;5.65;;
41480;SDS011;27217;51.220;5.308;2023-05-24T04:56:12;23.40;;;6.28;;
41480;SDS011;27217;51.220;5.308;2023-05-24T04:58:39;18.63;;;6.22;;
41480;SDS011;27217;51.220;5.308;2023-05-24T05:01:06;20.80;;;5.75;;
41480;SDS011;27217;51.220;5.308;2023-05-24T05:03:32;31.45;;;7.07;;
41480;SDS011;27217;51.220;5.308;2023-05-24T05:05:58;27.80;;;6.50;;
41480;SDS011;27217;51.220;5.308;2023-05-24T05:08:24;25.40;;;6.88;;
41480;SDS011;27217;51.220;5.308;2023-05-24T05:10:51;21.45;;;6.20;;
41480;SDS011;27217;51.220;5.308;2023-05-24T05:13:16;31.20;;;6.82;;
41480;SDS011;27217;51.220;5.308;2023-05-24T05:15:42;26.25;;;6.55;;
41480;SDS011;27217;51.220;5.308;2023-05-24T05:18:08;22.08;;;6.03;;
41480;SDS011;27217;51.220;5.308;2023-05-24T05:20:34;25.60;;;5.55;;
41480;SDS011;27217;51.220;5.308;2023-05-24T05:23:00;21.35;;;5.55;;
41480;SDS011;27217;51.220;5.308;2023-05-24T05:25:26;22.23;;;6.15;;
41480;SDS011;27217;51.220;5.308;2023-05-24T05:27:53;29.50;;;6.57;;
41480;SDS011;27217;51.220;5.308;2023-05-24T05:30:19;37.42;;;7.60;;
41480;SDS011;27217;51.220;5.308;2023-05-24T05:32:45;21.08;;;5.38;;
41480;SDS011;27217;51.220;5.308;2023-05-24T05:35:11;27.55;;;6.45;;
41480;SDS011;27217;51.220;5.308;2023-05-24T05:37:37;32.33;;;5.82;;
41480;SDS011;27217;51.220;5.308;2023-05-24T05:40:02;24.35;;;6.35;;
41480;SDS011;27217;51.220;5.308;2023-05-24T05:42:29;28.77;;;6.13;;
41480;SDS011;27217;51.220;5.308;2023-05-24T05:44:54;30.65;;;6.93;;
41480;SDS011;27217;51.220;5.308;2023-05-24T05:47:21;29.83;;;5.90;;
41480;SDS011;27217;51.220;5.308;2023-05-24T05:49:47;27.70;;;5.68;;
41480;SDS011;27217;51.220;5.308;2023-05-24T05:52:13;25.75;;;5.68;;
41480;SDS011;27217;51.220;5.308;2023-05-24T05:54:39;23.15;;;7.15;;
41480;SDS011;27217;51.220;5.308;2023-05-24T05:57:05;28.63;;;5.50;;
41480;SDS011;27217;51.220;5.308;2023-05-24T05:59:34;21.45;;;4.65;;
41480;SDS011;27217;51.220;5.308;2023-05-24T06:02:00;36.70;;;6.78;;
41480;SDS011;27217;51.220;5.308;2023-05-24T06:04:26;29.88;;;5.20;;
41480;SDS011;27217;51.220;5.308;2023-05-24T06:06:52;33.97;;;6.40;;
41480;SDS011;27217;51.220;5.308;2023-05-24T06:09:18;29.65;;;6.07;;
41480;SDS011;27217;51.220;5.308;2023-05-24T06:11:43;25.80;;;5.40;;
41480;SDS011;27217;51.220;5.308;2023-05-24T06:14:10;28.48;;;6.45;;
41480;SDS011;27217;51.220;5.308;2023-05-24T06:16:36;22.58;;;6.22;;
41480;SDS011;27217;51.220;5.308;2023-05-24T06:19:06;31.65;;;6.50;;
41480;SDS011;27217;51.220;5.308;2023-05-24T06:21:32;28.30;;;6.32;;
41480;SDS011;27217;51.220;5.308;2023-05-24T06:24:01;25.42;;;5.95;;
41480;SDS011;27217;51.220;5.308;2023-05-24T06:26:28;23.85;;;4.97;;
41480;SDS011;27217;51.220;5.308;2023-05-24T06:28:53;33.47;;;5.45;;
41480;SDS011;27217;51.220;5.308;2023-05-24T06:31:19;21.70;;;5.63;;
41480;SDS011;27217;51.220;5.308;2023-05-24T06:33:45;48.20;;;6.53;;
41480;SDS011;27217;51.220;5.308;2023-05-24T06:36:11;40.80;;;7.07;;
41480;SDS011;27217;51.220;5.308;2023-05-24T06:38:37;32.30;;;7.55;;
41480;SDS011;27217;51.220;5.308;2023-05-24T06:41:03;31.23;;;7.20;;
41480;SDS011;27217;51.220;5.308;2023-05-24T06:43:30;35.03;;;6.50;;
41480;SDS011;27217;51.220;5.308;2023-05-24T06:45:57;38.83;;;8.07;;
41480;SDS011;27217;51.220;5.308;2023-05-24T06:48:26;25.63;;;7.15;;
41480;SDS011;27217;51.220;5.308;2023-05-24T06:50:52;42.38;;;6.95;;
41480;SDS011;27217;51.220;5.308;2023-05-24T06:53:18;41.85;;;8.57;;
41480;SDS011;27217;51.220;5.308;2023-05-24T06:55:43;30.92;;;7.03;;
41480;SDS011;27217;51.220;5.308;2023-05-24T06:58:09;38.03;;;7.57;;
41480;SDS011;27217;51.220;5.308;2023-05-24T07:00:39;36.00;;;7.88;;
41480;SDS011;27217;51.220;5.308;2023-05-24T07:03:07;29.35;;;8.60;;
41480;SDS011;27217;51.220;5.308;2023-05-24T07:05:33;39.35;;;8.07;;
41480;SDS011;27217;51.220;5.308;2023-05-24T07:07:59;37.00;;;8.80;;
41480;SDS011;27217;51.220;5.308;2023-05-24T07:10:25;37.42;;;6.80;;
41480;SDS011;27217;51.220;5.308;2023-05-24T07:12:50;28.55;;;7.03;;
41480;SDS011;27217;51.220;5.308;2023-05-24T07:15:16;30.00;;;7.30;;
41480;SDS011;27217;51.220;5.308;2023-05-24T07:17:42;16.27;;;5.85;;
41480;SDS011;27217;51.220;5.308;2023-05-24T07:20:08;21.88;;;6.10;;
41480;SDS011;27217;51.220;5.308;2023-05-24T07:22:35;18.20;;;5.38;;
41480;SDS011;27217;51.220;5.308;2023-05-24T07:25:01;26.17;;;6.32;;
41480;SDS011;27217;51.220;5.308;2023-05-24T07:27:27;23.67;;;6.97;;
41480;SDS011;27217;51.220;5.308;2023-05-24T07:29:53;23.33;;;5.47;;
41480;SDS011;27217;51.220;5.308;2023-05-24T07:32:18;17.40;;;5.05;;
41480;SDS011;27217;51.220;5.308;2023-05-24T07:34:44;17.08;;;4.63;;
41480;SDS011;27217;51.220;5.308;2023-05-24T07:37:10;23.40;;;5.28;;
41480;SDS011;27217;51.220;5.308;2023-05-24T07:39:36;16.30;;;3.97;;
41480;SDS011;27217;51.220;5.308;2023-05-24T07:42:03;25.08;;;5.22;;
41480;SDS011;27217;51.220;5.308;2023-05-24T07:44:29;20.45;;;4.18;;
41480;SDS011;27217;51.220;5.308;2023-05-24T07:46:55;20.75;;;4.00;;
41480;SDS011;27217;51.220;5.308;2023-05-24T07:49:21;12.63;;;3.67;;
41480;SDS011;27217;51.220;5.308;2023-05-24T07:51:47;9.45;;;3.22;;
41480;SDS011;27217;51.220;5.308;2023-05-24T07:54:13;20.85;;;4.07;;
41480;SDS011;27217;51.220;5.308;2023-05-24T07:56:40;17.77;;;3.90;;
41480;SDS011;27217;51.220;5.308;2023-05-24T07:59:06;15.93;;;3.72;;
41480;SDS011;27217;51.220;5.308;2023-05-24T08:01:33;20.63;;;4.70;;
41480;SDS011;27217;51.220;5.308;2023-05-24T08:04:00;18.70;;;4.28;;
41480;SDS011;27217;51.220;5.308;2023-05-24T08:06:27;21.85;;;4.38;;
41480;SDS011;27217;51.220;5.308;2023-05-24T08:08:54;22.55;;;4.65;;
41480;SDS011;27217;51.220;5.308;2023-05-24T08:11:20;19.98;;;4.43;;
41480;SDS011;27217;51.220;5.308;2023-05-24T08:13:47;23.60;;;5.53;;
41480;SDS011;27217;51.220;5.308;2023-05-24T08:16:12;18.30;;;3.75;;
41480;SDS011;27217;51.220;5.308;2023-05-24T08:18:38;21.52;;;4.68;;
41480;SDS011;27217;51.220;5.308;2023-05-24T08:21:04;18.92;;;5.15;;
41480;SDS011;27217;51.220;5.308;2023-05-24T08:23:30;23.42;;;4.13;;
41480;SDS011;27217;51.220;5.308;2023-05-24T08:25:56;16.17;;;4.20;;
41480;SDS011;27217;51.220;5.308;2023-05-24T08:28:22;20.23;;;4.40;;
41480;SDS011;27217;51.220;5.308;2023-05-24T08:30:48;17.67;;;4.32;;
41480;SDS011;27217;51.220;5.308;2023-05-24T08:33:13;13.75;;;3.92;;
41480;SDS011;27217;51.220;5.308;2023-05-24T08:35:42;19.48;;;4.43;;
41480;SDS011;27217;51.220;5.308;2023-05-24T08:38:14;18.65;;;3.95;;
41480;SDS011;27217;51.220;5.308;2023-05-24T08:40:41;17.45;;;3.80;;
41480;SDS011;27217;51.220;5.308;2023-05-24T08:43:07;16.45;;;3.90;;
41480;SDS011;27217;51.220;5.308;2023-05-24T08:45:36;15.82;;;4.78;;
41480;SDS011;27217;51.220;5.308;2023-05-24T08:48:06;18.25;;;4.03;;
41480;SDS011;27217;51.220;5.308;2023-05-24T08:50:34;25.85;;;4.30;;
41480;SDS011;27217;51.220;5.308;2023-05-24T08:53:00;21.25;;;4.15;;
41480;SDS011;27217;51.220;5.308;2023-05-24T08:55:28;19.52;;;4.93;;
41480;SDS011;27217;51.220;5.308;2023-05-24T08:57:55;23.58;;;4.75;;
41480;SDS011;27217;51.220;5.308;2023-05-24T09:00:21;17.20;;;4.57;;
41480;SDS011;27217;51.220;5.308;2023-05-24T09:02:47;11.55;;;3.75;;
41480;SDS011;27217;51.220;5.308;2023-05-24T09:05:14;21.33;;;5.28;;
41480;SDS011;27217;51.220;5.308;2023-05-24T09:07:45;19.55;;;4.30;;
41480;SDS011;27217;51.220;5.308;2023-05-24T09:10:13;19.55;;;5.15;;
41480;SDS011;27217;51.220;5.308;2023-05-24T09:12:43;22.88;;;4.78;;
41480;SDS011;27217;51.220;5.308;2023-05-24T09:15:11;22.80;;;4.90;;
41480;SDS011;27217;51.220;5.308;2023-05-24T09:17:37;20.55;;;4.35;;
41480;SDS011;27217;51.220;5.308;2023-05-24T09:20:07;18.77;;;4.82;;
41480;SDS011;27217;51.220;5.308;2023-05-24T09:22:34;21.10;;;5.25;;
41480;SDS011;27217;51.220;5.308;2023-05-24T09:25:02;29.85;;;5.57;;
41480;SDS011;27217;51.220;5.308;2023-05-24T09:27:30;15.32;;;3.90;;
41480;SDS011;27217;51.220;5.308;2023-05-24T09:29:57;21.13;;;3.95;;
41480;SDS011;27217;51.220;5.308;2023-05-24T09:32:23;16.35;;;3.58;;
41480;SDS011;27217;51.220;5.308;2023-05-24T09:34:50;19.77;;;4.45;;
41480;SDS011;27217;51.220;5.308;2023-05-24T09:37:21;9.90;;;3.70;;
41480;SDS011;27217;51.220;5.308;2023-05-24T09:39:48;14.70;;;3.90;;
41480;SDS011;27217;51.220;5.308;2023-05-24T09:42:20;12.15;;;3.42;;
41480;SDS011;27217;51.220;5.308;2023-05-24T09:47:33;18.20;;;4.05;;
41480;SDS011;27217;51.220;5.308;2023-05-24T09:50:00;18.35;;;4.20;;
41480;SDS011;27217;51.220;5.308;2023-05-24T09:52:27;17.90;;;4.25;;
41480;SDS011;27217;51.220;5.308;2023-05-24T09:54:53;13.65;;;4.10;;
41480;SDS011;27217;51.220;5.308;2023-05-24T09:57:19;14.48;;;3.80;;
41480;SDS011;27217;51.220;5.308;2023-05-24T09:59:49;14.50;;;3.30;;
41480;SDS011;27217;51.220;5.308;2023-05-24T10:02:15;13.25;;;3.58;;
41480;SDS011;27217;51.220;5.308;2023-05-24T10:04:44;10.38;;;3.70;;
41480;SDS011;27217;51.220;5.308;2023-05-24T10:07:10;13.50;;;3.65;;
41480;SDS011;27217;51.220;5.308;2023-05-24T10:09:36;15.77;;;3.63;;
41480;SDS011;27217;51.220;5.308;2023-05-24T10:12:06;12.40;;;3.83;;
41480;SDS011;27217;51.220;5.308;2023-05-24T10:14:36;12.32;;;3.28;;
41480;SDS011;27217;51.220;5.308;2023-05-24T10:17:03;7.90;;;3.17;;
41480;SDS011;27217;51.220;5.308;2023-05-24T10:19:33;11.38;;;3.53;;
41480;SDS011;27217;51.220;5.308;2023-05-24T10:22:00;10.83;;;3.67;;
41480;SDS011;27217;51.220;5.308;2023-05-24T10:24:34;14.55;;;4.20;;
41480;SDS011;27217;51.220;5.308;2023-05-24T10:27:08;17.70;;;3.75;;
41480;SDS011;27217;51.220;5.308;2023-05-24T10:32:14;10.32;;;3.78;;
41480;SDS011;27217;51.220;5.308;2023-05-24T10:34:42;6.75;;;3.40;;
41480;SDS011;27217;51.220;5.308;2023-05-24T10:37:10;16.23;;;3.85;;
41480;SDS011;27217;51.220;5.308;2023-05-24T10:39:36;10.93;;;4.10;;
41480;SDS011;27217;51.220;5.308;2023-05-24T10:42:05;13.90;;;4.15;;
41480;SDS011;27217;51.220;5.308;2023-05-24T10:44:31;11.05;;;3.50;;
41480;SDS011;27217;51.220;5.308;2023-05-24T10:47:15;10.35;;;4.07;;
41480;SDS011;27217;51.220;5.308;2023-05-24T10:49:56;8.30;;;3.67;;
41480;SDS011;27217;51.220;5.308;2023-05-24T10:52:32;19.05;;;4.63;;
41480;SDS011;27217;51.220;5.308;2023-05-24T10:55:03;14.70;;;3.33;;
41480;SDS011;27217;51.220;5.308;2023-05-24T10:57:32;11.52;;;3.80;;
41480;SDS011;27217;51.220;5.308;2023-05-24T11:08:24;13.80;;;3.20;;
41480;SDS011;27217;51.220;5.308;2023-05-24T11:11:00;12.18;;;3.20;;
41480;SDS011;27217;51.220;5.308;2023-05-24T11:13:38;15.73;;;3.50;;
41480;SDS011;27217;51.220;5.308;2023-05-24T11:16:04;11.85;;;3.40;;
41480;SDS011;27217;51.220;5.308;2023-05-24T11:18:31;16.88;;;3.28;;
41480;SDS011;27217;51.220;5.308;2023-05-24T11:21:02;10.75;;;3.38;;
41480;SDS011;27217;51.220;5.308;2023-05-24T11:23:30;12.80;;;4.13;;
41480;SDS011;27217;51.220;5.308;2023-05-24T11:25:56;12.07;;;2.85;;
41480;SDS011;27217;51.220;5.308;2023-05-24T11:28:22;13.05;;;3.45;;
41480;SDS011;27217;51.220;5.308;2023-05-24T11:30:48;22.30;;;4.28;;
41480;SDS011;27217;51.220;5.308;2023-05-24T11:33:18;12.02;;;3.22;;
41480;SDS011;27217;51.220;5.308;2023-05-24T11:35:46;14.35;;;3.28;;
41480;SDS011;27217;51.220;5.308;2023-05-24T11:38:16;10.77;;;3.78;;
41480;SDS011;27217;51.220;5.308;2023-05-24T11:40:43;16.65;;;4.22;;
41480;SDS011;27217;51.220;5.308;2023-05-24T11:43:15;15.10;;;3.53;;
41480;SDS011;27217;51.220;5.308;2023-05-24T11:45:43;10.68;;;3.83;;
41480;SDS011;27217;51.220;5.308;2023-05-24T11:48:10;16.13;;;4.28;;
41480;SDS011;27217;51.220;5.308;2023-05-24T11:50:40;11.75;;;2.92;;
41480;SDS011;27217;51.220;5.308;2023-05-24T11:53:10;17.88;;;3.45;;
41480;SDS011;27217;51.220;5.308;2023-05-24T11:55:37;13.13;;;3.20;;
41480;SDS011;27217;51.220;5.308;2023-05-24T11:58:12;15.73;;;3.20;;
41480;SDS011;27217;51.220;5.308;2023-05-24T12:00:50;14.73;;;3.53;;
41480;SDS011;27217;51.220;5.308;2023-05-24T12:03:16;14.32;;;3.15;;
41480;SDS011;27217;51.220;5.308;2023-05-24T12:05:43;12.02;;;3.58;;
41480;SDS011;27217;51.220;5.308;2023-05-24T12:08:10;11.50;;;3.22;;
41480;SDS011;27217;51.220;5.308;2023-05-24T12:10:37;13.73;;;3.45;;
41480;SDS011;27217;51.220;5.308;2023-05-24T12:13:05;8.93;;;3.08;;
41480;SDS011;27217;51.220;5.308;2023-05-24T12:15:43;10.68;;;2.92;;
41480;SDS011;27217;51.220;5.308;2023-05-24T12:18:21;16.25;;;3.38;;
41480;SDS011;27217;51.220;5.308;2023-05-24T12:20:48;10.32;;;3.25;;
41480;SDS011;27217;51.220;5.308;2023-05-24T12:23:15;16.77;;;4.63;;
41480;SDS011;27217;51.220;5.308;2023-05-24T12:25:43;14.43;;;4.25;;
41480;SDS011;27217;51.220;5.308;2023-05-24T12:28:09;15.05;;;4.10;;
41480;SDS011;27217;51.220;5.308;2023-05-24T12:30:35;15.43;;;4.10;;
41480;SDS011;27217;51.220;5.308;2023-05-24T12:33:07;13.07;;;3.38;;
41480;SDS011;27217;51.220;5.308;2023-05-24T12:35:34;19.08;;;3.30;;
41480;SDS011;27217;51.220;5.308;2023-05-24T12:38:00;7.78;;;2.88;;
41480;SDS011;27217;51.220;5.308;2023-05-24T12:40:25;12.30;;;3.00;;
41480;SDS011;27217;51.220;5.308;2023-05-24T12:42:52;16.48;;;3.42;;
41480;SDS011;27217;51.220;5.308;2023-05-24T12:45:19;17.75;;;3.80;;
41480;SDS011;27217;51.220;5.308;2023-05-24T12:47:51;13.18;;;3.30;;
41480;SDS011;27217;51.220;5.308;2023-05-24T12:50:21;16.60;;;3.80;;
41480;SDS011;27217;51.220;5.308;2023-05-24T12:52:49;11.90;;;3.65;;
41480;SDS011;27217;51.220;5.308;2023-05-24T12:55:18;19.30;;;4.28;;
41480;SDS011;27217;51.220;5.308;2023-05-24T12:57:46;13.88;;;3.67;;
41480;SDS011;27217;51.220;5.308;2023-05-24T13:00:18;15.75;;;3.63;;
41480;SDS011;27217;51.220;5.308;2023-05-24T13:02:45;23.55;;;4.15;;
41480;SDS011;27217;51.220;5.308;2023-05-24T13:05:11;17.98;;;4.13;;
41480;SDS011;27217;51.220;5.308;2023-05-24T13:07:38;11.80;;;3.08;;
41480;SDS011;27217;51.220;5.308;2023-05-24T13:10:05;17.83;;;3.75;;
41480;SDS011;27217;51.220;5.308;2023-05-24T13:12:31;9.65;;;2.72;;
41480;SDS011;27217;51.220;5.308;2023-05-24T13:14:57;16.83;;;3.53;;
41480;SDS011;27217;51.220;5.308;2023-05-24T13:17:23;15.68;;;2.72;;
41480;SDS011;27217;51.220;5.308;2023-05-24T13:19:50;17.15;;;3.30;;
41480;SDS011;27217;51.220;5.308;2023-05-24T13:22:16;11.00;;;2.90;;
41480;SDS011;27217;51.220;5.308;2023-05-24T13:24:42;14.57;;;3.13;;
41480;SDS011;27217;51.220;5.308;2023-05-24T13:27:08;17.88;;;3.72;;
41480;SDS011;27217;51.220;5.308;2023-05-24T13:29:34;13.77;;;3.15;;
41480;SDS011;27217;51.220;5.308;2023-05-24T13:31:59;9.93;;;2.95;;
41480;SDS011;27217;51.220;5.308;2023-05-24T13:34:25;12.88;;;3.90;;
41480;SDS011;27217;51.220;5.308;2023-05-24T13:36:52;14.70;;;3.65;;
41480;SDS011;27217;51.220;5.308;2023-05-24T13:39:21;14.75;;;3.10;;
41480;SDS011;27217;51.220;5.308;2023-05-24T13:41:47;9.68;;;3.33;;
41480;SDS011;27217;51.220;5.308;2023-05-24T13:44:15;16.50;;;4.38;;
41480;SDS011;27217;51.220;5.308;2023-05-24T13:46:41;9.95;;;2.70;;
41480;SDS011;27217;51.220;5.308;2023-05-24T13:49:07;14.60;;;3.58;;
41480;SDS011;27217;51.220;5.308;2023-05-24T13:51:34;15.43;;;4.20;;
41480;SDS011;27217;51.220;5.308;2023-05-24T13:54:01;15.55;;;3.83;;
41480;SDS011;27217;51.220;5.308;2023-05-24T13:56:27;11.18;;;3.17;;
41480;SDS011;27217;51.220;5.308;2023-05-24T13:58:58;14.18;;;3.03;;
41480;SDS011;27217;51.220;5.308;2023-05-24T14:01:27;18.13;;;3.97;;
41480;SDS011;27217;51.220;5.308;2023-05-24T14:03:54;13.80;;;3.13;;
41480;SDS011;27217;51.220;5.308;2023-05-24T14:06:20;11.07;;;3.35;;
41480;SDS011;27217;51.220;5.308;2023-05-24T14:08:48;15.88;;;3.70;;
41480;SDS011;27217;51.220;5.308;2023-05-24T14:11:15;18.80;;;3.25;;
41480;SDS011;27217;51.220;5.308;2023-05-24T14:13:41;21.02;;;3.47;;
41480;SDS011;27217;51.220;5.308;2023-05-24T14:16:07;16.83;;;3.65;;
41480;SDS011;27217;51.220;5.308;2023-05-24T14:18:33;13.20;;;2.92;;
41480;SDS011;27217;51.220;5.308;2023-05-24T14:20:59;16.70;;;3.35;;
41480;SDS011;27217;51.220;5.308;2023-05-24T14:23:25;10.90;;;3.45;;
41480;SDS011;27217;51.220;5.308;2023-05-24T14:25:51;13.88;;;3.05;;
41480;SDS011;27217;51.220;5.308;2023-05-24T14:28:18;12.88;;;3.08;;
41480;SDS011;27217;51.220;5.308;2023-05-24T14:30:44;16.33;;;4.05;;
41480;SDS011;27217;51.220;5.308;2023-05-24T14:33:10;12.13;;;3.70;;
41480;SDS011;27217;51.220;5.308;2023-05-24T14:35:36;14.43;;;3.40;;
41480;SDS011;27217;51.220;5.308;2023-05-24T14:38:07;11.07;;;3.47;;
41480;SDS011;27217;51.220;5.308;2023-05-24T14:40:34;18.10;;;3.93;;
41480;SDS011;27217;51.220;5.308;2023-05-24T14:43:01;9.77;;;3.10;;
41480;SDS011;27217;51.220;5.308;2023-05-24T14:45:28;18.45;;;4.43;;
41480;SDS011;27217;51.220;5.308;2023-05-24T14:47:54;13.90;;;3.38;;
41480;SDS011;27217;51.220;5.308;2023-05-24T14:50:21;13.68;;;2.85;;
41480;SDS011;27217;51.220;5.308;2023-05-24T14:52:47;10.43;;;3.03;;
41480;SDS011;27217;51.220;5.308;2023-05-24T14:55:13;9.90;;;2.65;;
41480;SDS011;27217;51.220;5.308;2023-05-24T14:57:39;13.52;;;2.90;;
41480;SDS011;27217;51.220;5.308;2023-05-24T15:00:06;11.20;;;3.22;;
41480;SDS011;27217;51.220;5.308;2023-05-24T15:02:32;12.18;;;2.67;;
41480;SDS011;27217;51.220;5.308;2023-05-24T15:05:01;8.55;;;2.75;;
41480;SDS011;27217;51.220;5.308;2023-05-24T15:07:27;9.90;;;3.25;;
41480;SDS011;27217;51.220;5.308;2023-05-24T15:09:53;8.57;;;2.53;;
41480;SDS011;27217;51.220;5.308;2023-05-24T15:12:20;11.57;;;3.17;;